sensor_id;sensor_type;location;lat;lon;timestamp;P1;durP1;ratioP1;P2;durP2;ratioP2
10248;SDS011;5169;50.560;9.714;2024-01-15T00:00:43;107.07;;;39.27;;
10248;SDS011;5169;50.560;9.714;2024-01-15T00:03:09;106.00;;;39.23;;
10248;SDS011;5169;50.560;9.714;2024-01-15T00:05:35;104.57;;;37.77;;
10248;SDS011;5169;50.560;9.714;2024-01-15T00:08:01;110.77;;;38.13;;
10248;SDS011;5169;50.560;9.714;2024-01-15T00:10:34;113.10;;;38.67;;
10248;SDS011;5169;50.560;9.714;2024-01-15T00:13:00;113.90;;;46.33;;
10248;SDS011;5169;50.560;9.714;2024-01-15T00:15:26;108.93;;;38.67;;
10248;SDS011;5169;50.560;9.714;2024-01-15T00:17:53;115.10;;;40.20;;
10248;SDS011;5169;50.560;9.714;2024-01-15T00:20:21;111.27;;;39.93;;
10248;SDS011;5169;50.560;9.714;2024-01-15T00:22:47;113.43;;;40.03;;
10248;SDS011;5169;50.560;9.714;2024-01-15T00:25:12;109.60;;;38.57;;
10248;SDS011;5169;50.560;9.714;2024-01-15T00:27:40;109.00;;;39.20;;
10248;SDS011;5169;50.560;9.714;2024-01-15T00:30:06;108.20;;;37.60;;
10248;SDS011;5169;50.560;9.714;2024-01-15T00:32:31;101.93;;;36.13;;
10248;SDS011;5169;50.560;9.714;2024-01-15T00:34:57;102.53;;;37.07;;
10248;SDS011;5169;50.560;9.714;2024-01-15T00:37:23;101.47;;;37.07;;
10248;SDS011;5169;50.560;9.714;2024-01-15T00:39:48;105.00;;;38.83;;
10248;SDS011;5169;50.560;9.714;2024-01-15T00:42:14;103.03;;;38.63;;
10248;SDS011;5169;50.560;9.714;2024-01-15T00:44:39;103.27;;;37.43;;
10248;SDS011;5169;50.560;9.714;2024-01-15T00:47:05;100.20;;;36.57;;
10248;SDS011;5169;50.560;9.714;2024-01-15T00:49:35;107.57;;;38.60;;
10248;SDS011;5169;50.560;9.714;2024-01-15T00:52:01;108.13;;;37.93;;
10248;SDS011;5169;50.560;9.714;2024-01-15T00:54:29;110.47;;;39.10;;
10248;SDS011;5169;50.560;9.714;2024-01-15T00:56:54;111.20;;;38.47;;
10248;SDS011;5169;50.560;9.714;2024-01-15T00:59:20;110.83;;;38.17;;
10248;SDS011;5169;50.560;9.714;2024-01-15T01:01:48;109.07;;;39.00;;
10248;SDS011;5169;50.560;9.714;2024-01-15T01:04:14;113.50;;;39.93;;
10248;SDS011;5169;50.560;9.714;2024-01-15T01:06:39;116.23;;;39.53;;
10248;SDS011;5169;50.560;9.714;2024-01-15T01:09:05;108.97;;;38.43;;
10248;SDS011;5169;50.560;9.714;2024-01-15T01:11:30;104.27;;;38.17;;
10248;SDS011;5169;50.560;9.714;2024-01-15T01:13:56;110.57;;;38.50;;
10248;SDS011;5169;50.560;9.714;2024-01-15T01:16:25;106.13;;;37.13;;
10248;SDS011;5169;50.560;9.714;2024-01-15T01:18:51;103.37;;;37.50;;
10248;SDS011;5169;50.560;9.714;2024-01-15T01:21:16;106.70;;;37.77;;
10248;SDS011;5169;50.560;9.714;2024-01-15T01:23:42;103.03;;;36.80;;
10248;SDS011;5169;50.560;9.714;2024-01-15T01:26:08;105.60;;;38.23;;
10248;SDS011;5169;50.560;9.714;2024-01-15T01:28:33;108.10;;;38.73;;
10248;SDS011;5169;50.560;9.714;2024-01-15T01:30:59;110.20;;;39.43;;
10248;SDS011;5169;50.560;9.714;2024-01-15T01:33:27;104.50;;;37.37;;
10248;SDS011;5169;50.560;9.714;2024-01-15T01:35:52;108.83;;;38.80;;
10248;SDS011;5169;50.560;9.714;2024-01-15T01:38:20;105.00;;;37.90;;
10248;SDS011;5169;50.560;9.714;2024-01-15T01:40:46;106.23;;;38.03;;
10248;SDS011;5169;50.560;9.714;2024-01-15T01:43:12;106.37;;;38.00;;
10248;SDS011;5169;50.560;9.714;2024-01-15T01:45:37;106.97;;;38.40;;
10248;SDS011;5169;50.560;9.714;2024-01-15T01:48:05;109.03;;;39.00;;
10248;SDS011;5169;50.560;9.714;2024-01-15T01:50:31;106.87;;;38.43;;
10248;SDS011;5169;50.560;9.714;2024-01-15T01:52:57;111.00;;;39.07;;
10248;SDS011;5169;50.560;9.714;2024-01-15T01:55:23;109.80;;;38.23;;
10248;SDS011;5169;50.560;9.714;2024-01-15T01:57:51;110.50;;;38.90;;
10248;SDS011;5169;50.560;9.714;2024-01-15T02:00:19;112.87;;;39.10;;
10248;SDS011;5169;50.560;9.714;2024-01-15T02:02:45;111.70;;;38.90;;
10248;SDS011;5169;50.560;9.714;2024-01-15T02:05:11;117.27;;;40.67;;
10248;SDS011;5169;50.560;9.714;2024-01-15T02:07:41;112.33;;;38.97;;
10248;SDS011;5169;50.560;9.714;2024-01-15T02:10:07;111.17;;;38.53;;
10248;SDS011;5169;50.560;9.714;2024-01-15T02:12:35;109.80;;;38.03;;
10248;SDS011;5169;50.560;9.714;2024-01-15T02:15:01;107.00;;;38.07;;
10248;SDS011;5169;50.560;9.714;2024-01-15T02:17:29;111.30;;;38.13;;
10248;SDS011;5169;50.560;9.714;2024-01-15T02:19:54;113.07;;;38.53;;
10248;SDS011;5169;50.560;9.714;2024-01-15T02:22:25;108.13;;;38.37;;
10248;SDS011;5169;50.560;9.714;2024-01-15T02:24:52;110.27;;;38.87;;
10248;SDS011;5169;50.560;9.714;2024-01-15T02:27:18;105.67;;;37.87;;
10248;SDS011;5169;50.560;9.714;2024-01-15T02:29:45;104.67;;;38.17;;
10248;SDS011;5169;50.560;9.714;2024-01-15T02:32:13;106.50;;;38.53;;
10248;SDS011;5169;50.560;9.714;2024-01-15T02:34:41;105.87;;;37.10;;
10248;SDS011;5169;50.560;9.714;2024-01-15T02:37:12;111.97;;;38.80;;
10248;SDS011;5169;50.560;9.714;2024-01-15T02:39:40;106.50;;;36.77;;
10248;SDS011;5169;50.560;9.714;2024-01-15T02:42:05;112.73;;;39.10;;
10248;SDS011;5169;50.560;9.714;2024-01-15T02:44:31;111.93;;;38.97;;
10248;SDS011;5169;50.560;9.714;2024-01-15T02:46:57;110.97;;;38.20;;
10248;SDS011;5169;50.560;9.714;2024-01-15T02:49:22;115.03;;;39.43;;
10248;SDS011;5169;50.560;9.714;2024-01-15T02:51:50;112.97;;;39.30;;
10248;SDS011;5169;50.560;9.714;2024-01-15T02:54:15;114.93;;;39.50;;
10248;SDS011;5169;50.560;9.714;2024-01-15T02:56:46;110.43;;;37.73;;
10248;SDS011;5169;50.560;9.714;2024-01-15T02:59:11;110.53;;;38.27;;
10248;SDS011;5169;50.560;9.714;2024-01-15T03:01:37;113.83;;;38.83;;
10248;SDS011;5169;50.560;9.714;2024-01-15T03:04:02;110.37;;;37.60;;
10248;SDS011;5169;50.560;9.714;2024-01-15T03:06:33;111.33;;;38.37;;
10248;SDS011;5169;50.560;9.714;2024-01-15T03:08:58;111.63;;;38.47;;
10248;SDS011;5169;50.560;9.714;2024-01-15T03:11:27;112.77;;;38.60;;
10248;SDS011;5169;50.560;9.714;2024-01-15T03:13:53;109.23;;;37.53;;
10248;SDS011;5169;50.560;9.714;2024-01-15T03:16:21;113.57;;;39.50;;
10248;SDS011;5169;50.560;9.714;2024-01-15T03:18:49;108.73;;;36.53;;
10248;SDS011;5169;50.560;9.714;2024-01-15T03:21:17;117.73;;;39.67;;
10248;SDS011;5169;50.560;9.714;2024-01-15T03:23:48;113.70;;;39.40;;
10248;SDS011;5169;50.560;9.714;2024-01-15T03:26:15;109.77;;;37.60;;
10248;SDS011;5169;50.560;9.714;2024-01-15T03:28:43;109.83;;;38.23;;
10248;SDS011;5169;50.560;9.714;2024-01-15T03:31:09;111.90;;;38.77;;
10248;SDS011;5169;50.560;9.714;2024-01-15T03:33:34;113.13;;;38.60;;
10248;SDS011;5169;50.560;9.714;2024-01-15T03:36:00;112.97;;;39.40;;
10248;SDS011;5169;50.560;9.714;2024-01-15T03:38:27;120.53;;;39.27;;
10248;SDS011;5169;50.560;9.714;2024-01-15T03:40:55;114.73;;;39.07;;
10248;SDS011;5169;50.560;9.714;2024-01-15T03:43:21;113.33;;;38.63;;
10248;SDS011;5169;50.560;9.714;2024-01-15T03:45:47;114.37;;;39.73;;
10248;SDS011;5169;50.560;9.714;2024-01-15T03:48:12;113.93;;;38.87;;
10248;SDS011;5169;50.560;9.714;2024-01-15T03:50:38;114.43;;;38.33;;
10248;SDS011;5169;50.560;9.714;2024-01-15T03:53:05;104.40;;;35.97;;
10248;SDS011;5169;50.560;9.714;2024-01-15T03:55:31;112.67;;;38.63;;
10248;SDS011;5169;50.560;9.714;2024-01-15T03:57:57;114.13;;;39.27;;
10248;SDS011;5169;50.560;9.714;2024-01-15T04:00:23;116.03;;;37.87;;
10248;SDS011;5169;50.560;9.714;2024-01-15T04:02:48;116.60;;;39.50;;
10248;SDS011;5169;50.560;9.714;2024-01-15T04:05:14;113.90;;;38.90;;
10248;SDS011;5169;50.560;9.714;2024-01-15T04:07:39;112.57;;;38.67;;
10248;SDS011;5169;50.560;9.714;2024-01-15T04:12:59;108.13;;;38.57;;
10248;SDS011;5169;50.560;9.714;2024-01-15T04:15:26;108.37;;;37.80;;
10248;SDS011;5169;50.560;9.714;2024-01-15T04:17:54;108.47;;;38.90;;
10248;SDS011;5169;50.560;9.714;2024-01-15T04:20:22;108.70;;;38.23;;
10248;SDS011;5169;50.560;9.714;2024-01-15T04:22:47;108.27;;;37.50;;
10248;SDS011;5169;50.560;9.714;2024-01-15T04:25:13;109.90;;;38.77;;
10248;SDS011;5169;50.560;9.714;2024-01-15T04:27:39;102.90;;;37.87;;
10248;SDS011;5169;50.560;9.714;2024-01-15T04:30:04;100.63;;;37.30;;
10248;SDS011;5169;50.560;9.714;2024-01-15T04:32:30;103.47;;;37.37;;
10248;SDS011;5169;50.560;9.714;2024-01-15T04:34:56;102.43;;;37.47;;
10248;SDS011;5169;50.560;9.714;2024-01-15T04:37:21;101.80;;;37.20;;
10248;SDS011;5169;50.560;9.714;2024-01-15T04:39:47;99.87;;;36.33;;
10248;SDS011;5169;50.560;9.714;2024-01-15T04:42:13;99.90;;;36.30;;
10248;SDS011;5169;50.560;9.714;2024-01-15T04:44:39;102.40;;;37.17;;
10248;SDS011;5169;50.560;9.714;2024-01-15T04:47:04;100.67;;;36.53;;
10248;SDS011;5169;50.560;9.714;2024-01-15T04:49:30;102.43;;;37.00;;
10248;SDS011;5169;50.560;9.714;2024-01-15T04:51:58;106.43;;;37.60;;
10248;SDS011;5169;50.560;9.714;2024-01-15T04:54:23;105.00;;;37.50;;
10248;SDS011;5169;50.560;9.714;2024-01-15T04:56:49;103.33;;;37.23;;
10248;SDS011;5169;50.560;9.714;2024-01-15T04:59:17;107.40;;;38.47;;
10248;SDS011;5169;50.560;9.714;2024-01-15T05:01:44;108.93;;;38.43;;
10248;SDS011;5169;50.560;9.714;2024-01-15T05:04:10;103.40;;;37.77;;
10248;SDS011;5169;50.560;9.714;2024-01-15T05:06:35;103.80;;;38.00;;
10248;SDS011;5169;50.560;9.714;2024-01-15T05:09:01;102.70;;;36.80;;
10248;SDS011;5169;50.560;9.714;2024-01-15T05:11:32;103.70;;;37.00;;
10248;SDS011;5169;50.560;9.714;2024-01-15T05:13:57;101.73;;;36.00;;
10248;SDS011;5169;50.560;9.714;2024-01-15T05:16:23;100.77;;;36.83;;
10248;SDS011;5169;50.560;9.714;2024-01-15T05:18:48;104.37;;;37.20;;
10248;SDS011;5169;50.560;9.714;2024-01-15T05:21:14;98.10;;;36.37;;
10248;SDS011;5169;50.560;9.714;2024-01-15T05:23:40;101.13;;;36.47;;
10248;SDS011;5169;50.560;9.714;2024-01-15T05:26:07;95.57;;;35.60;;
10248;SDS011;5169;50.560;9.714;2024-01-15T05:28:34;97.10;;;36.10;;
10248;SDS011;5169;50.560;9.714;2024-01-15T05:31:02;99.43;;;36.23;;
10248;SDS011;5169;50.560;9.714;2024-01-15T05:33:29;95.90;;;35.57;;
10248;SDS011;5169;50.560;9.714;2024-01-15T05:35:54;97.90;;;36.03;;
10248;SDS011;5169;50.560;9.714;2024-01-15T05:38:20;96.73;;;35.37;;
10248;SDS011;5169;50.560;9.714;2024-01-15T05:40:48;101.53;;;36.27;;
10248;SDS011;5169;50.560;9.714;2024-01-15T05:43:16;98.43;;;36.23;;
10248;SDS011;5169;50.560;9.714;2024-01-15T05:45:43;95.97;;;35.03;;
10248;SDS011;5169;50.560;9.714;2024-01-15T05:48:09;100.80;;;36.40;;
10248;SDS011;5169;50.560;9.714;2024-01-15T05:50:35;100.43;;;35.17;;
10248;SDS011;5169;50.560;9.714;2024-01-15T05:53:03;100.03;;;36.10;;
10248;SDS011;5169;50.560;9.714;2024-01-15T05:55:29;98.13;;;36.00;;
10248;SDS011;5169;50.560;9.714;2024-01-15T05:57:57;97.67;;;35.83;;
10248;SDS011;5169;50.560;9.714;2024-01-15T06:00:22;97.87;;;35.43;;
10248;SDS011;5169;50.560;9.714;2024-01-15T06:02:48;100.63;;;36.63;;
10248;SDS011;5169;50.560;9.714;2024-01-15T06:05:13;100.13;;;36.73;;
10248;SDS011;5169;50.560;9.714;2024-01-15T06:07:42;99.03;;;35.50;;
10248;SDS011;5169;50.560;9.714;2024-01-15T06:10:07;101.53;;;36.30;;
10248;SDS011;5169;50.560;9.714;2024-01-15T06:12:33;102.90;;;36.03;;
10248;SDS011;5169;50.560;9.714;2024-01-15T06:14:59;94.60;;;34.97;;
10248;SDS011;5169;50.560;9.714;2024-01-15T06:17:24;99.10;;;36.47;;
10248;SDS011;5169;50.560;9.714;2024-01-15T06:19:50;101.70;;;36.90;;
10248;SDS011;5169;50.560;9.714;2024-01-15T06:22:15;99.43;;;36.27;;
10248;SDS011;5169;50.560;9.714;2024-01-15T06:24:41;99.93;;;37.13;;
10248;SDS011;5169;50.560;9.714;2024-01-15T06:27:07;101.40;;;36.87;;
10248;SDS011;5169;50.560;9.714;2024-01-15T06:29:33;103.13;;;37.40;;
10248;SDS011;5169;50.560;9.714;2024-01-15T06:32:02;102.80;;;37.40;;
10248;SDS011;5169;50.560;9.714;2024-01-15T06:34:31;97.90;;;35.83;;
10248;SDS011;5169;50.560;9.714;2024-01-15T06:36:59;98.00;;;36.70;;
10248;SDS011;5169;50.560;9.714;2024-01-15T06:39:24;97.33;;;36.37;;
10248;SDS011;5169;50.560;9.714;2024-01-15T06:41:52;99.33;;;36.23;;
10248;SDS011;5169;50.560;9.714;2024-01-15T06:44:18;101.90;;;37.30;;
10248;SDS011;5169;50.560;9.714;2024-01-15T06:46:48;105.13;;;37.67;;
10248;SDS011;5169;50.560;9.714;2024-01-15T06:49:14;102.03;;;37.47;;
10248;SDS011;5169;50.560;9.714;2024-01-15T06:51:40;100.87;;;37.03;;
10248;SDS011;5169;50.560;9.714;2024-01-15T06:54:05;98.67;;;36.17;;
10248;SDS011;5169;50.560;9.714;2024-01-15T06:56:31;42.03;;;22.60;;
10248;SDS011;5169;50.560;9.714;2024-01-15T06:58:57;14.37;;;6.57;;
10248;SDS011;5169;50.560;9.714;2024-01-15T07:01:23;10.37;;;5.57;;
10248;SDS011;5169;50.560;9.714;2024-01-15T07:03:48;12.17;;;7.07;;
10248;SDS011;5169;50.560;9.714;2024-01-15T07:06:14;11.80;;;5.53;;
10248;SDS011;5169;50.560;9.714;2024-01-15T07:08:40;9.57;;;6.03;;
10248;SDS011;5169;50.560;9.714;2024-01-15T07:11:06;12.97;;;6.33;;
10248;SDS011;5169;50.560;9.714;2024-01-15T07:13:32;16.33;;;12.17;;
10248;SDS011;5169;50.560;9.714;2024-01-15T07:15:58;15.87;;;10.53;;
10248;SDS011;5169;50.560;9.714;2024-01-15T07:18:24;64.67;;;23.67;;
10248;SDS011;5169;50.560;9.714;2024-01-15T07:20:50;15.43;;;10.90;;
10248;SDS011;5169;50.560;9.714;2024-01-15T07:23:15;38.87;;;24.37;;
10248;SDS011;5169;50.560;9.714;2024-01-15T07:25:42;12.63;;;9.30;;
10248;SDS011;5169;50.560;9.714;2024-01-15T07:28:10;117.40;;;39.23;;
10248;SDS011;5169;50.560;9.714;2024-01-15T07:30:38;191.77;;;52.60;;
10248;SDS011;5169;50.560;9.714;2024-01-15T07:33:06;184.77;;;50.53;;
10248;SDS011;5169;50.560;9.714;2024-01-15T07:35:31;187.97;;;52.20;;
10248;SDS011;5169;50.560;9.714;2024-01-15T07:37:57;188.83;;;52.70;;
10248;SDS011;5169;50.560;9.714;2024-01-15T07:40:23;183.10;;;51.13;;
10248;SDS011;5169;50.560;9.714;2024-01-15T07:42:49;190.27;;;52.47;;
10248;SDS011;5169;50.560;9.714;2024-01-15T07:45:15;195.53;;;55.03;;
10248;SDS011;5169;50.560;9.714;2024-01-15T07:47:41;179.60;;;50.10;;
10248;SDS011;5169;50.560;9.714;2024-01-15T07:50:07;181.07;;;50.03;;
10248;SDS011;5169;50.560;9.714;2024-01-15T07:52:32;181.67;;;49.87;;
10248;SDS011;5169;50.560;9.714;2024-01-15T07:54:58;180.63;;;49.87;;
10248;SDS011;5169;50.560;9.714;2024-01-15T07:57:28;179.17;;;49.43;;
10248;SDS011;5169;50.560;9.714;2024-01-15T07:59:54;175.63;;;49.10;;
10248;SDS011;5169;50.560;9.714;2024-01-15T08:02:22;178.50;;;49.83;;
10248;SDS011;5169;50.560;9.714;2024-01-15T08:04:47;178.80;;;50.47;;
10248;SDS011;5169;50.560;9.714;2024-01-15T08:07:13;179.70;;;51.03;;
10248;SDS011;5169;50.560;9.714;2024-01-15T08:09:39;177.87;;;50.30;;
10248;SDS011;5169;50.560;9.714;2024-01-15T08:12:04;180.37;;;50.90;;
10248;SDS011;5169;50.560;9.714;2024-01-15T08:14:31;182.67;;;50.97;;
10248;SDS011;5169;50.560;9.714;2024-01-15T08:16:56;179.67;;;50.87;;
10248;SDS011;5169;50.560;9.714;2024-01-15T08:19:24;180.17;;;50.87;;
10248;SDS011;5169;50.560;9.714;2024-01-15T08:21:52;180.10;;;51.20;;
10248;SDS011;5169;50.560;9.714;2024-01-15T08:24:18;179.80;;;50.23;;
10248;SDS011;5169;50.560;9.714;2024-01-15T08:26:46;178.43;;;49.87;;
10248;SDS011;5169;50.560;9.714;2024-01-15T08:29:12;183.33;;;51.90;;
10248;SDS011;5169;50.560;9.714;2024-01-15T08:31:37;182.33;;;51.87;;
10248;SDS011;5169;50.560;9.714;2024-01-15T08:34:03;180.47;;;50.50;;
10248;SDS011;5169;50.560;9.714;2024-01-15T08:36:29;183.97;;;51.30;;
10248;SDS011;5169;50.560;9.714;2024-01-15T08:38:56;177.77;;;49.77;;
10248;SDS011;5169;50.560;9.714;2024-01-15T08:41:21;179.10;;;49.27;;
10248;SDS011;5169;50.560;9.714;2024-01-15T08:43:49;185.20;;;51.00;;
10248;SDS011;5169;50.560;9.714;2024-01-15T08:46:18;179.00;;;50.77;;
10248;SDS011;5169;50.560;9.714;2024-01-15T08:48:44;175.67;;;50.00;;
10248;SDS011;5169;50.560;9.714;2024-01-15T08:51:10;182.57;;;51.20;;
10248;SDS011;5169;50.560;9.714;2024-01-15T08:53:38;183.53;;;51.70;;
10248;SDS011;5169;50.560;9.714;2024-01-15T08:56:04;177.10;;;49.60;;
10248;SDS011;5169;50.560;9.714;2024-01-15T08:58:33;176.87;;;49.80;;
10248;SDS011;5169;50.560;9.714;2024-01-15T09:01:02;176.97;;;49.23;;
10248;SDS011;5169;50.560;9.714;2024-01-15T09:03:27;181.60;;;50.07;;
10248;SDS011;5169;50.560;9.714;2024-01-15T09:05:55;180.33;;;50.40;;
10248;SDS011;5169;50.560;9.714;2024-01-15T09:08:21;179.13;;;49.70;;
10248;SDS011;5169;50.560;9.714;2024-01-15T09:10:48;184.10;;;52.27;;
10248;SDS011;5169;50.560;9.714;2024-01-15T09:13:14;182.00;;;50.87;;
10248;SDS011;5169;50.560;9.714;2024-01-15T09:15:40;181.13;;;51.27;;
10248;SDS011;5169;50.560;9.714;2024-01-15T09:18:05;183.00;;;51.97;;
10248;SDS011;5169;50.560;9.714;2024-01-15T09:20:31;178.90;;;49.23;;
10248;SDS011;5169;50.560;9.714;2024-01-15T09:22:59;182.57;;;51.33;;
10248;SDS011;5169;50.560;9.714;2024-01-15T09:25:24;182.50;;;51.13;;
10248;SDS011;5169;50.560;9.714;2024-01-15T09:27:50;180.63;;;51.07;;
10248;SDS011;5169;50.560;9.714;2024-01-15T09:30:16;183.33;;;50.83;;
10248;SDS011;5169;50.560;9.714;2024-01-15T09:32:41;183.03;;;51.00;;
10248;SDS011;5169;50.560;9.714;2024-01-15T09:35:07;184.77;;;51.60;;
10248;SDS011;5169;50.560;9.714;2024-01-15T09:37:33;184.00;;;51.27;;
10248;SDS011;5169;50.560;9.714;2024-01-15T09:40:02;180.93;;;51.63;;
10248;SDS011;5169;50.560;9.714;2024-01-15T09:42:34;181.63;;;51.17;;
10248;SDS011;5169;50.560;9.714;2024-01-15T09:45:00;181.67;;;51.17;;
10248;SDS011;5169;50.560;9.714;2024-01-15T09:47:29;184.63;;;51.17;;
10248;SDS011;5169;50.560;9.714;2024-01-15T09:49:55;181.27;;;51.13;;
10248;SDS011;5169;50.560;9.714;2024-01-15T09:52:23;182.43;;;51.20;;
10248;SDS011;5169;50.560;9.714;2024-01-15T09:54:50;182.63;;;51.53;;
10248;SDS011;5169;50.560;9.714;2024-01-15T09:57:16;183.63;;;51.40;;
10248;SDS011;5169;50.560;9.714;2024-01-15T09:59:42;181.60;;;51.53;;
10248;SDS011;5169;50.560;9.714;2024-01-15T10:02:10;185.57;;;51.93;;
10248;SDS011;5169;50.560;9.714;2024-01-15T10:04:42;179.90;;;50.97;;
10248;SDS011;5169;50.560;9.714;2024-01-15T10:07:10;179.80;;;51.63;;
10248;SDS011;5169;50.560;9.714;2024-01-15T10:12:30;181.07;;;50.07;;
10248;SDS011;5169;50.560;9.714;2024-01-15T10:14:57;180.13;;;51.30;;
10248;SDS011;5169;50.560;9.714;2024-01-15T10:17:23;181.53;;;51.67;;
10248;SDS011;5169;50.560;9.714;2024-01-15T10:19:56;175.87;;;50.00;;
10248;SDS011;5169;50.560;9.714;2024-01-15T10:22:22;179.17;;;51.07;;
10248;SDS011;5169;50.560;9.714;2024-01-15T10:24:48;178.33;;;50.70;;
10248;SDS011;5169;50.560;9.714;2024-01-15T10:27:14;180.30;;;51.20;;
10248;SDS011;5169;50.560;9.714;2024-01-15T10:29:42;182.30;;;50.87;;
10248;SDS011;5169;50.560;9.714;2024-01-15T10:32:08;179.93;;;50.67;;
10248;SDS011;5169;50.560;9.714;2024-01-15T10:34:36;189.20;;;53.23;;
10248;SDS011;5169;50.560;9.714;2024-01-15T10:37:06;189.57;;;52.90;;
10248;SDS011;5169;50.560;9.714;2024-01-15T10:39:32;185.20;;;52.07;;
10248;SDS011;5169;50.560;9.714;2024-01-15T10:41:58;186.60;;;51.97;;
10248;SDS011;5169;50.560;9.714;2024-01-15T10:44:24;186.03;;;52.77;;
10248;SDS011;5169;50.560;9.714;2024-01-15T10:46:50;185.33;;;51.27;;
10248;SDS011;5169;50.560;9.714;2024-01-15T10:49:16;185.33;;;51.87;;
10248;SDS011;5169;50.560;9.714;2024-01-15T10:51:45;186.13;;;51.60;;
10248;SDS011;5169;50.560;9.714;2024-01-15T10:54:14;181.23;;;49.83;;
10248;SDS011;5169;50.560;9.714;2024-01-15T10:56:40;184.23;;;51.43;;
10248;SDS011;5169;50.560;9.714;2024-01-15T10:59:10;186.80;;;52.33;;
10248;SDS011;5169;50.560;9.714;2024-01-15T11:01:37;188.40;;;52.50;;
10248;SDS011;5169;50.560;9.714;2024-01-15T11:04:03;183.40;;;50.20;;
10248;SDS011;5169;50.560;9.714;2024-01-15T11:06:29;188.17;;;51.93;;
10248;SDS011;5169;50.560;9.714;2024-01-15T11:09:11;185.77;;;51.20;;
10248;SDS011;5169;50.560;9.714;2024-01-15T11:11:41;187.97;;;51.87;;
10248;SDS011;5169;50.560;9.714;2024-01-15T11:14:09;193.10;;;52.27;;
10248;SDS011;5169;50.560;9.714;2024-01-15T11:16:54;191.93;;;52.20;;
10248;SDS011;5169;50.560;9.714;2024-01-15T11:19:24;191.13;;;52.63;;
10248;SDS011;5169;50.560;9.714;2024-01-15T11:21:50;188.50;;;51.97;;
10248;SDS011;5169;50.560;9.714;2024-01-15T11:24:34;189.33;;;51.87;;
10248;SDS011;5169;50.560;9.714;2024-01-15T11:27:04;190.90;;;53.10;;
10248;SDS011;5169;50.560;9.714;2024-01-15T11:29:32;190.83;;;52.27;;
10248;SDS011;5169;50.560;9.714;2024-01-15T11:32:02;187.17;;;51.27;;
10248;SDS011;5169;50.560;9.714;2024-01-15T11:37:16;189.70;;;51.63;;
10248;SDS011;5169;50.560;9.714;2024-01-15T11:39:44;191.33;;;52.50;;
10248;SDS011;5169;50.560;9.714;2024-01-15T11:42:10;191.50;;;53.00;;
10248;SDS011;5169;50.560;9.714;2024-01-15T11:44:39;193.83;;;53.63;;
10248;SDS011;5169;50.560;9.714;2024-01-15T11:47:06;194.03;;;53.03;;
10248;SDS011;5169;50.560;9.714;2024-01-15T11:52:35;198.17;;;52.60;;
10248;SDS011;5169;50.560;9.714;2024-01-15T12:00:05;198.53;;;52.30;;
10248;SDS011;5169;50.560;9.714;2024-01-15T12:02:31;197.37;;;53.10;;
10248;SDS011;5169;50.560;9.714;2024-01-15T12:04:57;199.07;;;53.30;;
10248;SDS011;5169;50.560;9.714;2024-01-15T12:07:23;197.47;;;52.63;;
10248;SDS011;5169;50.560;9.714;2024-01-15T12:09:53;201.90;;;54.07;;
10248;SDS011;5169;50.560;9.714;2024-01-15T12:12:24;200.50;;;53.70;;
10248;SDS011;5169;50.560;9.714;2024-01-15T12:15:14;198.40;;;53.20;;
10248;SDS011;5169;50.560;9.714;2024-01-15T12:17:40;198.40;;;53.53;;
10248;SDS011;5169;50.560;9.714;2024-01-15T12:20:05;199.37;;;53.50;;
10248;SDS011;5169;50.560;9.714;2024-01-15T12:22:31;202.17;;;53.20;;
10248;SDS011;5169;50.560;9.714;2024-01-15T12:24:57;196.57;;;52.57;;
10248;SDS011;5169;50.560;9.714;2024-01-15T12:27:25;198.97;;;53.77;;
10248;SDS011;5169;50.560;9.714;2024-01-15T12:29:52;204.87;;;53.57;;
10248;SDS011;5169;50.560;9.714;2024-01-15T12:32:23;201.03;;;53.43;;
10248;SDS011;5169;50.560;9.714;2024-01-15T12:34:49;198.73;;;53.60;;
10248;SDS011;5169;50.560;9.714;2024-01-15T12:37:18;201.30;;;54.40;;
10248;SDS011;5169;50.560;9.714;2024-01-15T12:39:44;203.07;;;53.63;;
10248;SDS011;5169;50.560;9.714;2024-01-15T12:42:10;201.33;;;52.93;;
10248;SDS011;5169;50.560;9.714;2024-01-15T12:44:39;201.53;;;53.10;;
10248;SDS011;5169;50.560;9.714;2024-01-15T12:47:04;201.23;;;53.90;;
10248;SDS011;5169;50.560;9.714;2024-01-15T12:49:30;203.13;;;53.07;;
10248;SDS011;5169;50.560;9.714;2024-01-15T12:51:56;199.20;;;53.33;;
10248;SDS011;5169;50.560;9.714;2024-01-15T12:54:22;198.37;;;53.50;;
10248;SDS011;5169;50.560;9.714;2024-01-15T12:56:51;197.43;;;52.60;;
10248;SDS011;5169;50.560;9.714;2024-01-15T12:59:17;196.70;;;52.63;;
10248;SDS011;5169;50.560;9.714;2024-01-15T13:01:44;196.57;;;53.13;;
10248;SDS011;5169;50.560;9.714;2024-01-15T13:04:12;199.07;;;53.07;;
10248;SDS011;5169;50.560;9.714;2024-01-15T13:06:49;195.27;;;52.77;;
10248;SDS011;5169;50.560;9.714;2024-01-15T13:09:16;188.40;;;50.53;;
10248;SDS011;5169;50.560;9.714;2024-01-15T13:11:42;194.93;;;53.57;;
10248;SDS011;5169;50.560;9.714;2024-01-15T13:14:13;193.50;;;52.57;;
10248;SDS011;5169;50.560;9.714;2024-01-15T13:16:42;193.13;;;52.93;;
10248;SDS011;5169;50.560;9.714;2024-01-15T13:19:10;198.37;;;53.43;;
10248;SDS011;5169;50.560;9.714;2024-01-15T13:21:39;198.87;;;58.47;;
10248;SDS011;5169;50.560;9.714;2024-01-15T13:24:08;195.70;;;53.67;;
10248;SDS011;5169;50.560;9.714;2024-01-15T13:26:36;195.13;;;53.40;;
10248;SDS011;5169;50.560;9.714;2024-01-15T13:29:02;195.07;;;52.20;;
10248;SDS011;5169;50.560;9.714;2024-01-15T13:31:39;195.37;;;52.70;;
10248;SDS011;5169;50.560;9.714;2024-01-15T13:34:11;192.97;;;51.97;;
10248;SDS011;5169;50.560;9.714;2024-01-15T13:36:37;189.50;;;50.70;;
10248;SDS011;5169;50.560;9.714;2024-01-15T13:39:03;194.60;;;52.40;;
10248;SDS011;5169;50.560;9.714;2024-01-15T13:41:33;193.47;;;50.30;;
10248;SDS011;5169;50.560;9.714;2024-01-15T13:43:59;188.63;;;50.20;;
10248;SDS011;5169;50.560;9.714;2024-01-15T13:46:28;187.77;;;50.40;;
10248;SDS011;5169;50.560;9.714;2024-01-15T13:48:58;186.03;;;49.77;;
10248;SDS011;5169;50.560;9.714;2024-01-15T13:51:27;187.47;;;50.90;;
10248;SDS011;5169;50.560;9.714;2024-01-15T13:53:52;186.90;;;50.37;;
10248;SDS011;5169;50.560;9.714;2024-01-15T13:56:18;188.30;;;49.33;;
10248;SDS011;5169;50.560;9.714;2024-01-15T13:58:44;188.20;;;50.27;;
10248;SDS011;5169;50.560;9.714;2024-01-15T14:01:09;186.23;;;49.90;;
10248;SDS011;5169;50.560;9.714;2024-01-15T14:03:35;187.70;;;50.77;;
10248;SDS011;5169;50.560;9.714;2024-01-15T14:06:01;190.93;;;50.70;;
10248;SDS011;5169;50.560;9.714;2024-01-15T14:08:34;188.77;;;49.50;;
10248;SDS011;5169;50.560;9.714;2024-01-15T14:11:00;188.87;;;50.20;;
10248;SDS011;5169;50.560;9.714;2024-01-15T14:13:26;191.20;;;51.47;;
10248;SDS011;5169;50.560;9.714;2024-01-15T14:15:53;189.17;;;50.10;;
10248;SDS011;5169;50.560;9.714;2024-01-15T14:18:23;188.60;;;50.53;;
10248;SDS011;5169;50.560;9.714;2024-01-15T14:20:48;193.30;;;50.67;;
10248;SDS011;5169;50.560;9.714;2024-01-15T14:23:14;190.47;;;50.97;;
10248;SDS011;5169;50.560;9.714;2024-01-15T14:25:39;194.63;;;50.97;;
10248;SDS011;5169;50.560;9.714;2024-01-15T14:28:05;199.43;;;51.13;;
10248;SDS011;5169;50.560;9.714;2024-01-15T14:30:33;199.13;;;50.70;;
10248;SDS011;5169;50.560;9.714;2024-01-15T14:32:58;201.37;;;50.93;;
10248;SDS011;5169;50.560;9.714;2024-01-15T14:35:24;199.10;;;50.60;;
10248;SDS011;5169;50.560;9.714;2024-01-15T14:37:49;200.40;;;51.40;;